createdAt,value
2018-08-17T00:00:51.395Z,17.00
2018-08-17T00:05:56.169Z,17.02
2018-08-17T00:11:01.008Z,16.99
2018-08-17T00:16:06.066Z,16.88
2018-08-17T00:21:10.936Z,16.81
2018-08-17T00:26:15.749Z,16.73
2018-08-17T00:31:20.641Z,16.88
2018-08-17T00:36:25.474Z,16.66
2018-08-17T00:41:30.288Z,16.55
2018-08-17T00:46:35.129Z,16.53
2018-08-17T00:51:39.987Z,16.33
2018-08-17T00:56:44.879Z,16.21
2018-08-17T01:01:49.870Z,16.17
2018-08-17T01:06:55.556Z,16.13
2018-08-17T01:12:00.475Z,16.06
2018-08-17T01:17:05.371Z,16.08
2018-08-17T01:22:10.143Z,15.99
2018-08-17T01:27:14.952Z,15.90
2018-08-17T01:32:19.731Z,15.83
2018-08-17T01:37:24.839Z,15.85
2018-08-17T01:42:29.767Z,15.81
2018-08-17T01:47:34.615Z,15.68
2018-08-17T01:52:39.488Z,15.70
2018-08-17T01:57:44.326Z,15.69
2018-08-17T02:02:49.128Z,15.56
2018-08-17T02:07:53.974Z,15.63
2018-08-17T02:12:58.707Z,15.78
2018-08-17T02:18:03.533Z,15.68
2018-08-17T02:23:08.668Z,15.52
2018-08-17T02:28:13.614Z,15.52
2018-08-17T02:33:18.431Z,15.49
2018-08-17T02:38:23.303Z,15.33
2018-08-17T02:43:28.058Z,15.22
2018-08-17T02:48:32.931Z,15.13
2018-08-17T02:53:37.729Z,15.06
2018-08-17T02:58:42.499Z,14.97
2018-08-17T03:03:47.329Z,14.95
2018-08-17T03:08:52.189Z,14.94
2018-08-17T03:13:57.073Z,14.88
2018-08-17T03:19:01.956Z,14.88
2018-08-17T03:24:06.817Z,14.86
2018-08-17T03:29:11.594Z,14.81
2018-08-17T03:34:16.580Z,14.74
2018-08-17T03:39:21.414Z,14.74
2018-08-17T03:44:26.332Z,14.71
2018-08-17T03:49:31.225Z,14.73
2018-08-17T03:54:36.026Z,14.69
2018-08-17T03:59:40.798Z,14.68
2018-08-17T04:04:45.657Z,14.78
2018-08-17T04:09:50.399Z,14.90
2018-08-17T04:14:55.235Z,15.10
2018-08-17T04:20:00.157Z,15.28
2018-08-17T04:25:06.958Z,15.37
2018-08-17T04:30:11.836Z,15.50
2018-08-17T04:35:16.679Z,15.64
2018-08-17T04:40:21.508Z,15.89
2018-08-17T04:45:26.516Z,16.36
2018-08-17T04:50:31.378Z,16.48
2018-08-17T04:55:36.235Z,16.64
2018-08-17T05:00:41.081Z,17.07
2018-08-17T05:05:46.014Z,17.01
2018-08-17T05:10:50.904Z,17.22
2018-08-17T05:15:55.691Z,17.45
2018-08-17T05:21:00.589Z,17.76
2018-08-17T05:26:05.474Z,18.01
2018-08-17T05:31:10.451Z,19.13
2018-08-17T05:36:15.323Z,19.79
2018-08-17T05:41:20.196Z,19.67
2018-08-17T05:46:24.946Z,19.11
2018-08-17T05:51:30.123Z,18.92
2018-08-17T05:56:35.083Z,19.12
2018-08-17T06:01:39.984Z,19.23
2018-08-17T06:06:44.724Z,19.19
2018-08-17T06:11:49.576Z,18.87
2018-08-17T06:16:54.591Z,18.89
2018-08-17T06:21:59.621Z,18.85
2018-08-17T06:27:04.518Z,20.00
2018-08-17T06:32:10.373Z,19.87
2018-08-17T06:37:15.408Z,20.19
2018-08-17T06:42:20.148Z,19.85
2018-08-17T06:47:24.992Z,20.61
2018-08-17T06:52:29.996Z,20.86
2018-08-17T06:57:34.746Z,21.72
2018-08-17T07:02:39.657Z,21.47
2018-08-17T07:07:44.432Z,22.28
2018-08-17T07:12:49.290Z,21.96
2018-08-17T07:17:54.191Z,21.53
2018-08-17T07:22:59.122Z,21.29
2018-08-17T07:28:03.932Z,21.62
2018-08-17T07:33:08.769Z,21.66
2018-08-17T07:38:14.382Z,21.82
2018-08-17T07:43:19.212Z,21.87
2018-08-17T07:48:24.175Z,22.70
2018-08-17T07:53:29.008Z,23.59
2018-08-17T07:58:34.100Z,24.31
2018-08-17T08:03:38.962Z,25.51
2018-08-17T08:08:43.735Z,25.43
2018-08-17T08:13:48.608Z,26.79
2018-08-17T08:18:53.631Z,26.73
2018-08-17T08:23:58.403Z,26.62
2018-08-17T08:29:03.389Z,26.57
2018-08-17T08:34:08.316Z,25.90
2018-08-17T08:39:14.201Z,26.13
2018-08-17T08:44:19.110Z,27.07
2018-08-17T08:49:23.951Z,27.31
2018-08-17T08:54:28.756Z,27.26
2018-08-17T08:59:33.580Z,27.53
2018-08-17T09:04:38.398Z,27.68
2018-08-17T09:09:43.161Z,28.74
2018-08-17T09:14:47.979Z,28.49
2018-08-17T09:19:52.815Z,28.23
2018-08-17T09:24:57.669Z,29.06
2018-08-17T09:30:02.727Z,28.99
2018-08-17T09:35:07.864Z,29.56
2018-08-17T09:40:12.972Z,29.75
2018-08-17T09:45:17.797Z,30.07
2018-08-17T09:50:22.595Z,29.76
2018-08-17T09:55:27.445Z,29.62
2018-08-17T10:00:37.551Z,30.28
2018-08-17T10:05:43.685Z,30.00
2018-08-17T10:10:48.584Z,30.56
2018-08-17T10:15:53.505Z,31.53
2018-08-17T10:20:58.596Z,31.43
2018-08-17T10:26:03.165Z,31.42
2018-08-17T10:31:08.019Z,31.64
2018-08-17T10:36:12.839Z,32.09
2018-08-17T10:41:17.831Z,31.62
2018-08-17T10:46:22.745Z,32.19
2018-08-17T10:51:27.603Z,32.59
2018-08-17T10:56:32.481Z,32.55
2018-08-17T11:01:42.016Z,31.93
2018-08-17T11:06:46.886Z,30.93
2018-08-17T11:11:51.712Z,30.75
2018-08-17T11:16:57.231Z,31.49
2018-08-17T11:22:02.157Z,32.61
2018-08-17T11:27:07.053Z,32.84
2018-08-17T11:32:11.798Z,32.31
2018-08-17T11:37:16.690Z,32.95
2018-08-17T11:42:21.665Z,33.20
2018-08-17T11:47:26.790Z,33.19
2018-08-17T11:52:38.106Z,33.27
2018-08-17T11:57:42.982Z,33.80
2018-08-17T12:02:48.145Z,33.87
2018-08-17T12:07:52.913Z,33.56
2018-08-17T12:13:05.336Z,33.66
2018-08-17T12:18:10.931Z,32.47
2018-08-17T12:23:16.103Z,33.31
2018-08-17T12:28:20.931Z,32.29
2018-08-17T12:33:25.771Z,32.73
2018-08-17T12:38:30.641Z,33.52
2018-08-17T12:43:37.555Z,32.61
2018-08-17T12:48:42.526Z,31.87
2018-08-17T12:53:47.526Z,31.65
2018-08-17T12:58:52.894Z,31.55
2018-08-17T13:03:57.758Z,31.69
2018-08-17T13:09:02.700Z,31.83
2018-08-17T13:14:12.066Z,31.85
2018-08-17T13:19:16.850Z,32.45
2018-08-17T13:24:21.653Z,33.44
2018-08-17T13:29:26.528Z,33.83
2018-08-17T13:34:31.407Z,33.60
2018-08-17T13:39:36.455Z,32.89
2018-08-17T13:44:41.552Z,32.86
2018-08-17T13:49:46.427Z,32.85
2018-08-17T13:54:51.351Z,32.61
2018-08-17T13:59:56.266Z,32.49
2018-08-17T14:05:01.237Z,32.90
2018-08-17T14:10:07.522Z,32.71
2018-08-17T14:15:12.364Z,32.84
2018-08-17T14:20:17.325Z,33.22
2018-08-17T14:25:22.236Z,32.52
2018-08-17T14:30:27.130Z,33.11
2018-08-17T14:35:32.064Z,34.03
2018-08-17T14:40:36.847Z,34.59
2018-08-17T14:45:41.689Z,34.20
2018-08-17T14:50:46.473Z,34.62
2018-08-17T14:55:51.424Z,34.05
2018-08-17T15:00:56.293Z,33.67
2018-08-17T15:06:01.147Z,33.10
2018-08-17T15:16:26.648Z,32.81
2018-08-17T15:21:31.646Z,32.39
2018-08-17T15:26:36.563Z,32.13
2018-08-17T15:31:41.512Z,31.99
2018-08-17T15:36:46.360Z,32.39
2018-08-17T15:41:51.278Z,32.16
2018-08-17T15:46:57.605Z,32.49
2018-08-17T15:52:03.725Z,32.10
2018-08-17T15:57:08.834Z,31.54
2018-08-17T16:02:13.786Z,31.40
2018-08-17T16:07:18.580Z,31.25
2018-08-17T16:12:23.483Z,31.21
2018-08-17T16:17:28.313Z,30.99
2018-08-17T16:22:33.148Z,30.87
2018-08-17T16:27:38.029Z,30.72
2018-08-17T16:32:43.101Z,30.65
2018-08-17T16:37:49.144Z,30.49
2018-08-17T16:42:53.947Z,30.38
2018-08-17T16:47:59.063Z,30.06
2018-08-17T16:53:03.966Z,30.05
2018-08-17T16:58:08.870Z,29.90
2018-08-17T17:03:13.677Z,29.74
2018-08-17T17:08:18.472Z,29.74
2018-08-17T17:13:23.266Z,29.57
2018-08-17T17:18:28.136Z,29.32
2018-08-17T17:23:33.168Z,29.24
2018-08-17T17:28:38.134Z,28.97
2018-08-17T17:33:42.985Z,28.88
2018-08-17T17:38:47.934Z,28.80
2018-08-17T17:43:52.751Z,28.65
2018-08-17T17:48:57.668Z,28.60
2018-08-17T17:54:02.651Z,28.39
2018-08-17T17:59:15.121Z,28.36
2018-08-17T18:04:20.012Z,28.21
2018-08-17T18:09:24.803Z,28.20
2018-08-17T18:14:29.617Z,28.07
2018-08-17T18:19:34.480Z,27.90
2018-08-17T18:24:39.377Z,27.84
2018-08-17T18:29:44.298Z,27.58
2018-08-17T18:34:49.342Z,27.59
2018-08-17T18:39:54.160Z,27.27
2018-08-17T18:44:59.059Z,27.27
2018-08-17T18:50:04.078Z,27.03
2018-08-17T18:55:09.901Z,26.58
2018-08-17T19:00:15.280Z,26.20
2018-08-17T19:05:20.607Z,25.87
2018-08-17T19:10:25.513Z,25.69
2018-08-17T19:15:34.865Z,25.50
2018-08-17T19:20:39.840Z,25.28
2018-08-17T19:25:44.764Z,25.01
2018-08-17T19:30:49.710Z,24.99
2018-08-17T19:35:55.377Z,24.95
2018-08-17T19:41:00.427Z,25.53
2018-08-17T19:46:05.675Z,25.66
2018-08-17T19:51:15.622Z,25.44
2018-08-17T19:56:21.370Z,25.57
2018-08-17T20:01:26.213Z,25.16
2018-08-17T20:06:31.712Z,25.30
2018-08-17T20:11:36.716Z,25.30
2018-08-17T20:16:41.873Z,25.16
2018-08-17T20:21:49.009Z,24.92
2018-08-17T20:26:54.060Z,24.77
2018-08-17T20:31:59.250Z,24.75
2018-08-17T20:37:04.173Z,24.53
2018-08-17T20:42:09.701Z,24.43
2018-08-17T20:47:14.690Z,24.30
2018-08-17T20:52:20.608Z,24.10
2018-08-17T20:57:25.692Z,24.04
2018-08-17T21:02:30.665Z,23.89
2018-08-17T21:07:35.646Z,23.76
2018-08-17T21:12:40.678Z,23.68
2018-08-17T21:17:45.651Z,23.42
2018-08-17T21:22:50.812Z,23.35
2018-08-17T21:27:55.728Z,23.21
2018-08-17T21:33:00.873Z,23.04
2018-08-17T21:38:05.925Z,22.98
2018-08-17T21:43:10.855Z,22.85
2018-08-17T21:48:22.286Z,22.81
2018-08-17T21:53:27.133Z,22.56
2018-08-17T21:58:32.109Z,22.42
2018-08-17T22:03:37.675Z,22.52
2018-08-17T22:08:42.544Z,22.21
2018-08-17T22:13:47.376Z,22.19
2018-08-17T22:18:52.579Z,22.03
2018-08-17T22:23:57.417Z,21.88
2018-08-17T22:29:02.602Z,21.94
2018-08-17T22:34:07.540Z,21.95
2018-08-17T22:39:12.327Z,21.64
2018-08-17T22:44:23.071Z,21.59
2018-08-17T22:49:27.944Z,21.41
2018-08-17T22:54:32.938Z,21.29
2018-08-17T22:59:37.913Z,21.29
2018-08-17T23:04:43.116Z,21.10
2018-08-17T23:09:47.997Z,20.93
2018-08-17T23:14:53.411Z,20.97
2018-08-17T23:19:59.050Z,20.76
2018-08-17T23:25:04.128Z,20.71
2018-08-17T23:30:09.048Z,20.77
2018-08-17T23:35:14.046Z,20.73
2018-08-17T23:40:18.988Z,20.74
2018-08-17T23:45:23.916Z,20.68
2018-08-17T23:50:28.841Z,20.68
2018-08-17T23:55:33.694Z,20.42
